sensor_id;sensor_type;location;lat;lon;timestamp;temperature;humidity
7622;DHT22;3852;52.284;8.032;2022-12-18T00:01:24;-6.10;99.90
7622;DHT22;3852;52.284;8.032;2022-12-18T00:03:52;-6.10;99.90
7622;DHT22;3852;52.284;8.032;2022-12-18T00:06:21;-6.10;99.90
7622;DHT22;3852;52.284;8.032;2022-12-18T00:08:48;-6.10;99.90
7622;DHT22;3852;52.284;8.032;2022-12-18T00:11:16;-6.10;99.90
7622;DHT22;3852;52.284;8.032;2022-12-18T00:13:44;-6.20;99.90
7622;DHT22;3852;52.284;8.032;2022-12-18T00:16:13;-6.20;99.90
7622;DHT22;3852;52.284;8.032;2022-12-18T00:18:40;-6.20;99.90
7622;DHT22;3852;52.284;8.032;2022-12-18T00:21:09;-6.20;99.90
7622;DHT22;3852;52.284;8.032;2022-12-18T00:23:37;-6.10;99.90
7622;DHT22;3852;52.284;8.032;2022-12-18T00:26:05;-6.10;99.90
7622;DHT22;3852;52.284;8.032;2022-12-18T00:28:33;-6.20;99.90
7622;DHT22;3852;52.284;8.032;2022-12-18T00:31:05;-6.20;99.90
7622;DHT22;3852;52.284;8.032;2022-12-18T00:33:33;-6.20;99.90
7622;DHT22;3852;52.284;8.032;2022-12-18T00:36:04;-6.20;99.90
7622;DHT22;3852;52.284;8.032;2022-12-18T00:38:33;-6.30;99.90
7622;DHT22;3852;52.284;8.032;2022-12-18T00:40:59;-6.30;99.90
7622;DHT22;3852;52.284;8.032;2022-12-18T00:43:26;-6.30;99.90
7622;DHT22;3852;52.284;8.032;2022-12-18T00:45:52;-6.40;99.90
7622;DHT22;3852;52.284;8.032;2022-12-18T00:48:18;-6.30;99.90
7622;DHT22;3852;52.284;8.032;2022-12-18T00:50:46;-6.30;99.90
7622;DHT22;3852;52.284;8.032;2022-12-18T00:53:13;-6.30;99.90
7622;DHT22;3852;52.284;8.032;2022-12-18T00:55:42;-6.20;99.90
7622;DHT22;3852;52.284;8.032;2022-12-18T00:58:09;-6.20;99.90
7622;DHT22;3852;52.284;8.032;2022-12-18T01:00:36;-6.20;99.90
7622;DHT22;3852;52.284;8.032;2022-12-18T01:03:02;-6.30;99.90
7622;DHT22;3852;52.284;8.032;2022-12-18T01:05:28;-6.20;99.90
7622;DHT22;3852;52.284;8.032;2022-12-18T01:07:55;-6.10;99.90
7622;DHT22;3852;52.284;8.032;2022-12-18T01:10:22;-6.10;99.90
7622;DHT22;3852;52.284;8.032;2022-12-18T01:12:48;-6.10;99.90
7622;DHT22;3852;52.284;8.032;2022-12-18T01:15:15;-6.10;99.90
7622;DHT22;3852;52.284;8.032;2022-12-18T01:17:41;-6.10;99.90
7622;DHT22;3852;52.284;8.032;2022-12-18T01:20:08;-6.00;99.90
7622;DHT22;3852;52.284;8.032;2022-12-18T01:22:36;-6.10;99.90
7622;DHT22;3852;52.284;8.032;2022-12-18T01:25:03;-6.00;99.90
7622;DHT22;3852;52.284;8.032;2022-12-18T01:27:30;-6.00;99.90
7622;DHT22;3852;52.284;8.032;2022-12-18T01:29:56;-6.00;99.90
7622;DHT22;3852;52.284;8.032;2022-12-18T01:32:22;-6.00;99.90
7622;DHT22;3852;52.284;8.032;2022-12-18T01:34:48;-6.00;99.90
7622;DHT22;3852;52.284;8.032;2022-12-18T01:37:14;-6.00;99.90
7622;DHT22;3852;52.284;8.032;2022-12-18T01:39:39;-6.00;99.90
7622;DHT22;3852;52.284;8.032;2022-12-18T01:42:15;-6.00;99.90
7622;DHT22;3852;52.284;8.032;2022-12-18T01:47:57;-5.90;99.90
7622;DHT22;3852;52.284;8.032;2022-12-18T01:50:31;-5.80;99.90
7622;DHT22;3852;52.284;8.032;2022-12-18T01:53:07;-5.60;99.90
7622;DHT22;3852;52.284;8.032;2022-12-18T01:55:43;-5.70;99.90
7622;DHT22;3852;52.284;8.032;2022-12-18T01:58:15;-5.60;99.90
7622;DHT22;3852;52.284;8.032;2022-12-18T02:00:41;-5.50;99.90
7622;DHT22;3852;52.284;8.032;2022-12-18T02:03:07;-5.60;99.90
7622;DHT22;3852;52.284;8.032;2022-12-18T02:05:47;-5.60;99.90
7622;DHT22;3852;52.284;8.032;2022-12-18T02:08:34;-5.60;99.90
7622;DHT22;3852;52.284;8.032;2022-12-18T02:11:48;-5.70;99.90
7622;DHT22;3852;52.284;8.032;2022-12-18T02:14:38;-5.70;99.90
7622;DHT22;3852;52.284;8.032;2022-12-18T02:17:23;-5.70;99.90
7622;DHT22;3852;52.284;8.032;2022-12-18T02:20:32;-5.70;99.90
7622;DHT22;3852;52.284;8.032;2022-12-18T02:28:31;-5.80;99.90
7622;DHT22;3852;52.284;8.032;2022-12-18T02:31:03;-5.90;99.90
7622;DHT22;3852;52.284;8.032;2022-12-18T02:33:33;-5.80;99.90
7622;DHT22;3852;52.284;8.032;2022-12-18T02:36:01;-5.80;99.90
7622;DHT22;3852;52.284;8.032;2022-12-18T02:38:29;-5.80;99.90
7622;DHT22;3852;52.284;8.032;2022-12-18T02:40:56;-5.90;99.90
7622;DHT22;3852;52.284;8.032;2022-12-18T02:43:23;-5.90;99.90
7622;DHT22;3852;52.284;8.032;2022-12-18T02:45:54;-5.90;99.90
7622;DHT22;3852;52.284;8.032;2022-12-18T02:48:31;-5.80;99.90
7622;DHT22;3852;52.284;8.032;2022-12-18T02:54:10;-5.90;99.90
7622;DHT22;3852;52.284;8.032;2022-12-18T02:56:50;-5.70;99.90
7622;DHT22;3852;52.284;8.032;2022-12-18T02:59:33;-5.90;99.90
7622;DHT22;3852;52.284;8.032;2022-12-18T03:08:06;-5.70;99.90
7622;DHT22;3852;52.284;8.032;2022-12-18T03:13:45;-5.60;99.90
7622;DHT22;3852;52.284;8.032;2022-12-18T03:16:26;-5.60;99.90
7622;DHT22;3852;52.284;8.032;2022-12-18T03:19:00;-5.70;99.90
7622;DHT22;3852;52.284;8.032;2022-12-18T03:21:56;-5.60;99.90
7622;DHT22;3852;52.284;8.032;2022-12-18T03:24:22;-5.60;99.90
7622;DHT22;3852;52.284;8.032;2022-12-18T03:26:54;-5.70;99.90
7622;DHT22;3852;52.284;8.032;2022-12-18T03:29:32;-5.50;99.90
7622;DHT22;3852;52.284;8.032;2022-12-18T03:32:42;-5.50;99.90
7622;DHT22;3852;52.284;8.032;2022-12-18T03:35:34;-5.50;99.90
7622;DHT22;3852;52.284;8.032;2022-12-18T03:38:02;-5.20;99.90
7622;DHT22;3852;52.284;8.032;2022-12-18T03:40:33;-5.40;99.90
7622;DHT22;3852;52.284;8.032;2022-12-18T03:46:29;-4.90;99.90
7622;DHT22;3852;52.284;8.032;2022-12-18T03:49:05;-4.70;99.90
7622;DHT22;3852;52.284;8.032;2022-12-18T03:54:13;-4.70;99.90
7622;DHT22;3852;52.284;8.032;2022-12-18T03:56:44;-4.60;99.90
7622;DHT22;3852;52.284;8.032;2022-12-18T03:59:13;-4.80;99.90
7622;DHT22;3852;52.284;8.032;2022-12-18T04:01:46;-4.70;99.90
7622;DHT22;3852;52.284;8.032;2022-12-18T04:04:15;-4.60;99.90
7622;DHT22;3852;52.284;8.032;2022-12-18T04:06:42;-4.50;99.90
7622;DHT22;3852;52.284;8.032;2022-12-18T04:09:09;-4.50;99.90
7622;DHT22;3852;52.284;8.032;2022-12-18T04:11:35;-4.20;99.90
7622;DHT22;3852;52.284;8.032;2022-12-18T04:14:01;-4.20;99.90
7622;DHT22;3852;52.284;8.032;2022-12-18T04:16:27;-3.90;99.90
7622;DHT22;3852;52.284;8.032;2022-12-18T04:18:54;-4.10;99.90
7622;DHT22;3852;52.284;8.032;2022-12-18T04:21:20;-4.20;99.90
7622;DHT22;3852;52.284;8.032;2022-12-18T04:23:46;-4.10;99.90
7622;DHT22;3852;52.284;8.032;2022-12-18T04:26:12;-4.00;99.90
7622;DHT22;3852;52.284;8.032;2022-12-18T04:28:38;-4.20;99.90
7622;DHT22;3852;52.284;8.032;2022-12-18T04:31:04;-4.40;99.90
7622;DHT22;3852;52.284;8.032;2022-12-18T04:33:30;-4.40;99.90
7622;DHT22;3852;52.284;8.032;2022-12-18T04:35:55;-4.20;99.90
7622;DHT22;3852;52.284;8.032;2022-12-18T04:38:21;-4.40;99.90
7622;DHT22;3852;52.284;8.032;2022-12-18T04:40:47;-4.10;99.90
7622;DHT22;3852;52.284;8.032;2022-12-18T04:43:13;-4.20;99.90
7622;DHT22;3852;52.284;8.032;2022-12-18T04:45:39;-4.20;99.90
7622;DHT22;3852;52.284;8.032;2022-12-18T04:48:04;-4.40;99.90
7622;DHT22;3852;52.284;8.032;2022-12-18T04:50:31;-4.70;99.90
7622;DHT22;3852;52.284;8.032;2022-12-18T04:52:57;-4.40;99.90
7622;DHT22;3852;52.284;8.032;2022-12-18T04:55:27;-4.30;99.90
7622;DHT22;3852;52.284;8.032;2022-12-18T04:57:52;-4.40;99.90
7622;DHT22;3852;52.284;8.032;2022-12-18T05:00:19;-4.20;99.90
7622;DHT22;3852;52.284;8.032;2022-12-18T05:02:45;-4.10;99.90
7622;DHT22;3852;52.284;8.032;2022-12-18T05:05:11;-3.90;99.90
7622;DHT22;3852;52.284;8.032;2022-12-18T05:07:36;-4.00;99.90
7622;DHT22;3852;52.284;8.032;2022-12-18T05:10:06;-4.00;99.90
7622;DHT22;3852;52.284;8.032;2022-12-18T05:12:32;-4.10;99.90
7622;DHT22;3852;52.284;8.032;2022-12-18T05:14:58;-4.00;99.90
7622;DHT22;3852;52.284;8.032;2022-12-18T05:17:23;-3.90;99.90
7622;DHT22;3852;52.284;8.032;2022-12-18T05:19:49;-3.70;99.90
7622;DHT22;3852;52.284;8.032;2022-12-18T05:22:15;-3.90;99.90
7622;DHT22;3852;52.284;8.032;2022-12-18T05:24:41;-3.70;99.90
7622;DHT22;3852;52.284;8.032;2022-12-18T05:27:07;-3.80;99.90
7622;DHT22;3852;52.284;8.032;2022-12-18T05:29:33;-3.70;99.90
7622;DHT22;3852;52.284;8.032;2022-12-18T05:32:03;-3.90;99.90
7622;DHT22;3852;52.284;8.032;2022-12-18T05:34:29;-4.10;99.90
7622;DHT22;3852;52.284;8.032;2022-12-18T05:36:55;-4.10;99.90
7622;DHT22;3852;52.284;8.032;2022-12-18T05:39:23;-4.00;99.90
7622;DHT22;3852;52.284;8.032;2022-12-18T05:41:52;-3.80;99.90
7622;DHT22;3852;52.284;8.032;2022-12-18T05:44:17;-3.80;99.90
7622;DHT22;3852;52.284;8.032;2022-12-18T05:46:43;-3.80;99.90
7622;DHT22;3852;52.284;8.032;2022-12-18T05:49:09;-3.60;99.90
7622;DHT22;3852;52.284;8.032;2022-12-18T05:51:35;-3.70;99.90
7622;DHT22;3852;52.284;8.032;2022-12-18T05:54:01;-4.00;99.90
7622;DHT22;3852;52.284;8.032;2022-12-18T05:56:26;-4.30;99.90
7622;DHT22;3852;52.284;8.032;2022-12-18T05:58:53;-4.10;99.90
7622;DHT22;3852;52.284;8.032;2022-12-18T06:01:23;-4.20;99.90
7622;DHT22;3852;52.284;8.032;2022-12-18T06:03:51;-4.40;99.90
7622;DHT22;3852;52.284;8.032;2022-12-18T06:06:23;-4.70;99.90
7622;DHT22;3852;52.284;8.032;2022-12-18T06:08:50;-4.90;99.90
7622;DHT22;3852;52.284;8.032;2022-12-18T06:11:19;-5.00;99.90
7622;DHT22;3852;52.284;8.032;2022-12-18T06:13:50;-5.00;99.90
7622;DHT22;3852;52.284;8.032;2022-12-18T06:16:17;-4.90;99.90
7622;DHT22;3852;52.284;8.032;2022-12-18T06:18:42;-4.50;99.90
7622;DHT22;3852;52.284;8.032;2022-12-18T06:21:08;-4.30;99.90
7622;DHT22;3852;52.284;8.032;2022-12-18T06:23:35;-4.50;99.90
7622;DHT22;3852;52.284;8.032;2022-12-18T06:26:07;-4.80;99.90
7622;DHT22;3852;52.284;8.032;2022-12-18T06:28:35;-4.90;99.90
7622;DHT22;3852;52.284;8.032;2022-12-18T06:31:05;-4.70;99.90
7622;DHT22;3852;52.284;8.032;2022-12-18T06:33:31;-4.60;99.90
7622;DHT22;3852;52.284;8.032;2022-12-18T06:36:06;-4.50;99.90
7622;DHT22;3852;52.284;8.032;2022-12-18T06:38:34;-4.70;99.90
7622;DHT22;3852;52.284;8.032;2022-12-18T06:41:09;-4.60;99.90
7622;DHT22;3852;52.284;8.032;2022-12-18T06:43:45;-4.80;99.90
7622;DHT22;3852;52.284;8.032;2022-12-18T06:46:11;-4.60;99.90
7622;DHT22;3852;52.284;8.032;2022-12-18T06:48:37;-4.60;99.90
7622;DHT22;3852;52.284;8.032;2022-12-18T06:51:03;-4.40;99.90
7622;DHT22;3852;52.284;8.032;2022-12-18T06:53:29;-4.50;99.90
7622;DHT22;3852;52.284;8.032;2022-12-18T06:56:05;-4.20;99.90
7622;DHT22;3852;52.284;8.032;2022-12-18T06:58:32;-4.40;99.90
7622;DHT22;3852;52.284;8.032;2022-12-18T07:01:03;-4.20;99.90
7622;DHT22;3852;52.284;8.032;2022-12-18T07:03:29;-4.20;99.90
7622;DHT22;3852;52.284;8.032;2022-12-18T07:05:55;-4.40;99.90
7622;DHT22;3852;52.284;8.032;2022-12-18T07:08:22;-4.40;99.90
7622;DHT22;3852;52.284;8.032;2022-12-18T07:10:47;-4.50;99.90
7622;DHT22;3852;52.284;8.032;2022-12-18T07:13:15;-4.60;99.90
7622;DHT22;3852;52.284;8.032;2022-12-18T07:15:42;-4.70;99.90
7622;DHT22;3852;52.284;8.032;2022-12-18T07:18:08;-4.80;99.90
7622;DHT22;3852;52.284;8.032;2022-12-18T07:20:34;-4.60;99.90
7622;DHT22;3852;52.284;8.032;2022-12-18T07:23:02;-4.40;99.90
7622;DHT22;3852;52.284;8.032;2022-12-18T07:25:29;-4.30;99.90
7622;DHT22;3852;52.284;8.032;2022-12-18T07:27:54;-4.40;99.90
7622;DHT22;3852;52.284;8.032;2022-12-18T07:30:20;-4.50;99.90
7622;DHT22;3852;52.284;8.032;2022-12-18T07:32:46;-4.60;99.90
7622;DHT22;3852;52.284;8.032;2022-12-18T07:35:12;-4.10;99.90
7622;DHT22;3852;52.284;8.032;2022-12-18T07:37:38;-4.30;99.90
7622;DHT22;3852;52.284;8.032;2022-12-18T07:40:04;-4.50;99.90
7622;DHT22;3852;52.284;8.032;2022-12-18T07:42:31;-4.60;99.90
7622;DHT22;3852;52.284;8.032;2022-12-18T07:45:00;-4.40;99.90
7622;DHT22;3852;52.284;8.032;2022-12-18T07:47:28;-4.30;99.90
7622;DHT22;3852;52.284;8.032;2022-12-18T07:49:56;-4.40;99.90
7622;DHT22;3852;52.284;8.032;2022-12-18T07:52:22;-4.30;99.90
7622;DHT22;3852;52.284;8.032;2022-12-18T07:54:48;-4.20;99.90
7622;DHT22;3852;52.284;8.032;2022-12-18T07:57:16;-4.10;99.90
7622;DHT22;3852;52.284;8.032;2022-12-18T07:59:42;-4.10;99.90
7622;DHT22;3852;52.284;8.032;2022-12-18T08:02:08;-3.90;99.90
7622;DHT22;3852;52.284;8.032;2022-12-18T08:04:34;-4.00;99.90
7622;DHT22;3852;52.284;8.032;2022-12-18T08:07:00;-3.90;99.90
7622;DHT22;3852;52.284;8.032;2022-12-18T08:09:26;-3.90;99.90
7622;DHT22;3852;52.284;8.032;2022-12-18T08:11:52;-3.80;99.90
7622;DHT22;3852;52.284;8.032;2022-12-18T08:14:18;-3.90;99.90
7622;DHT22;3852;52.284;8.032;2022-12-18T08:16:43;-4.00;99.90
7622;DHT22;3852;52.284;8.032;2022-12-18T08:19:12;-4.10;99.90
7622;DHT22;3852;52.284;8.032;2022-12-18T08:21:41;-4.20;99.90
7622;DHT22;3852;52.284;8.032;2022-12-18T08:24:09;-4.20;99.90
7622;DHT22;3852;52.284;8.032;2022-12-18T08:26:36;-4.20;99.90
7622;DHT22;3852;52.284;8.032;2022-12-18T08:29:02;-4.10;99.90
7622;DHT22;3852;52.284;8.032;2022-12-18T08:31:29;-4.10;99.90
7622;DHT22;3852;52.284;8.032;2022-12-18T08:33:56;-4.00;99.90
7622;DHT22;3852;52.284;8.032;2022-12-18T08:36:23;-3.70;99.90
7622;DHT22;3852;52.284;8.032;2022-12-18T08:38:49;-3.70;99.90
7622;DHT22;3852;52.284;8.032;2022-12-18T08:41:16;-3.70;99.90
7622;DHT22;3852;52.284;8.032;2022-12-18T08:43:42;-3.70;99.90
7622;DHT22;3852;52.284;8.032;2022-12-18T08:46:32;-3.90;99.90
7622;DHT22;3852;52.284;8.032;2022-12-18T08:49:02;-3.80;99.90
7622;DHT22;3852;52.284;8.032;2022-12-18T08:51:29;-3.90;99.90
7622;DHT22;3852;52.284;8.032;2022-12-18T08:53:55;-3.90;99.90
7622;DHT22;3852;52.284;8.032;2022-12-18T08:56:20;-3.80;99.90
7622;DHT22;3852;52.284;8.032;2022-12-18T08:58:46;-3.80;99.90
7622;DHT22;3852;52.284;8.032;2022-12-18T09:01:13;-3.70;99.90
7622;DHT22;3852;52.284;8.032;2022-12-18T09:03:39;-3.70;99.90
7622;DHT22;3852;52.284;8.032;2022-12-18T09:06:05;-3.70;99.90
7622;DHT22;3852;52.284;8.032;2022-12-18T09:08:35;-3.50;99.90
7622;DHT22;3852;52.284;8.032;2022-12-18T09:11:02;-3.30;99.90
7622;DHT22;3852;52.284;8.032;2022-12-18T09:13:28;-3.40;99.90
7622;DHT22;3852;52.284;8.032;2022-12-18T09:15:55;-3.30;99.90
7622;DHT22;3852;52.284;8.032;2022-12-18T09:18:22;-3.10;99.90
7622;DHT22;3852;52.284;8.032;2022-12-18T09:20:49;-3.10;99.90
7622;DHT22;3852;52.284;8.032;2022-12-18T09:23:17;-3.20;99.90
7622;DHT22;3852;52.284;8.032;2022-12-18T09:25:42;-3.00;99.90
7622;DHT22;3852;52.284;8.032;2022-12-18T09:28:16;-3.00;99.90
7622;DHT22;3852;52.284;8.032;2022-12-18T09:30:48;-2.80;99.90
7622;DHT22;3852;52.284;8.032;2022-12-18T09:33:15;-2.70;99.90
7622;DHT22;3852;52.284;8.032;2022-12-18T09:35:43;-2.90;99.90
7622;DHT22;3852;52.284;8.032;2022-12-18T09:38:17;-2.70;99.90
7622;DHT22;3852;52.284;8.032;2022-12-18T09:40:59;-2.60;99.90
7622;DHT22;3852;52.284;8.032;2022-12-18T09:43:50;-2.70;99.90
7622;DHT22;3852;52.284;8.032;2022-12-18T09:46:24;-2.80;99.90
7622;DHT22;3852;52.284;8.032;2022-12-18T09:48:58;-2.90;99.90
7622;DHT22;3852;52.284;8.032;2022-12-18T09:51:32;-2.90;99.90
7622;DHT22;3852;52.284;8.032;2022-12-18T09:54:05;-3.00;99.90
7622;DHT22;3852;52.284;8.032;2022-12-18T09:56:36;-2.90;99.90
7622;DHT22;3852;52.284;8.032;2022-12-18T09:59:05;-2.80;99.90
7622;DHT22;3852;52.284;8.032;2022-12-18T10:01:32;-2.80;99.90
7622;DHT22;3852;52.284;8.032;2022-12-18T10:03:59;-2.80;99.90
7622;DHT22;3852;52.284;8.032;2022-12-18T10:12:21;-2.70;99.90
7622;DHT22;3852;52.284;8.032;2022-12-18T10:15:28;-2.60;99.90
7622;DHT22;3852;52.284;8.032;2022-12-18T10:20:59;-2.50;99.90
7622;DHT22;3852;52.284;8.032;2022-12-18T10:26:09;-2.50;99.90
7622;DHT22;3852;52.284;8.032;2022-12-18T10:28:40;-2.60;99.90
7622;DHT22;3852;52.284;8.032;2022-12-18T10:31:07;-2.50;99.90
7622;DHT22;3852;52.284;8.032;2022-12-18T10:33:39;-2.40;99.90
7622;DHT22;3852;52.284;8.032;2022-12-18T10:36:06;-2.50;99.90
7622;DHT22;3852;52.284;8.032;2022-12-18T10:38:33;-2.40;99.90
7622;DHT22;3852;52.284;8.032;2022-12-18T10:41:32;-2.60;99.90
7622;DHT22;3852;52.284;8.032;2022-12-18T10:44:27;-2.70;99.90
7622;DHT22;3852;52.284;8.032;2022-12-18T10:47:04;-2.30;99.90
7622;DHT22;3852;52.284;8.032;2022-12-18T10:49:33;-2.00;99.90
7622;DHT22;3852;52.284;8.032;2022-12-18T10:52:20;-2.20;99.90
7622;DHT22;3852;52.284;8.032;2022-12-18T10:54:59;-2.30;99.90
7622;DHT22;3852;52.284;8.032;2022-12-18T10:57:39;-2.20;99.90
7622;DHT22;3852;52.284;8.032;2022-12-18T11:00:30;-2.30;99.90
7622;DHT22;3852;52.284;8.032;2022-12-18T11:02:56;-2.30;99.90
7622;DHT22;3852;52.284;8.032;2022-12-18T11:05:34;-2.20;99.90
7622;DHT22;3852;52.284;8.032;2022-12-18T11:08:02;-1.90;99.90
7622;DHT22;3852;52.284;8.032;2022-12-18T11:10:38;-1.70;99.90
7622;DHT22;3852;52.284;8.032;2022-12-18T11:13:23;-1.50;99.90
7622;DHT22;3852;52.284;8.032;2022-12-18T11:15:53;-1.50;99.90
7622;DHT22;3852;52.284;8.032;2022-12-18T11:18:33;-1.40;99.90
7622;DHT22;3852;52.284;8.032;2022-12-18T11:21:07;-1.40;99.90
7622;DHT22;3852;52.284;8.032;2022-12-18T11:23:36;-1.60;99.90
7622;DHT22;3852;52.284;8.032;2022-12-18T11:26:04;-1.60;99.90
7622;DHT22;3852;52.284;8.032;2022-12-18T11:28:38;-1.80;99.90
7622;DHT22;3852;52.284;8.032;2022-12-18T11:31:24;-1.90;99.90
7622;DHT22;3852;52.284;8.032;2022-12-18T11:36:31;-2.10;99.90
7622;DHT22;3852;52.284;8.032;2022-12-18T11:39:05;-1.90;99.90
7622;DHT22;3852;52.284;8.032;2022-12-18T11:42:05;-2.00;99.90
7622;DHT22;3852;52.284;8.032;2022-12-18T11:44:54;-1.80;99.90
7622;DHT22;3852;52.284;8.032;2022-12-18T11:50:53;-1.70;99.90
7622;DHT22;3852;52.284;8.032;2022-12-18T11:53:20;-1.80;99.90
7622;DHT22;3852;52.284;8.032;2022-12-18T11:56:03;-1.90;99.90
7622;DHT22;3852;52.284;8.032;2022-12-18T12:13:26;-1.50;99.90
7622;DHT22;3852;52.284;8.032;2022-12-18T12:16:11;-1.40;99.90
7622;DHT22;3852;52.284;8.032;2022-12-18T12:25:17;-1.40;99.90
7622;DHT22;3852;52.284;8.032;2022-12-18T12:39:37;-0.80;99.90
7622;DHT22;3852;52.284;8.032;2022-12-18T12:42:09;-0.70;99.90
7622;DHT22;3852;52.284;8.032;2022-12-18T12:44:59;-0.80;99.90
7622;DHT22;3852;52.284;8.032;2022-12-18T12:47:31;-0.90;99.90
7622;DHT22;3852;52.284;8.032;2022-12-18T12:50:04;-0.90;99.90
7622;DHT22;3852;52.284;8.032;2022-12-18T12:52:46;-0.70;99.90
7622;DHT22;3852;52.284;8.032;2022-12-18T12:55:25;-0.60;99.90
7622;DHT22;3852;52.284;8.032;2022-12-18T13:09:31;-0.70;99.90
7622;DHT22;3852;52.284;8.032;2022-12-18T13:12:03;-0.80;99.90
7622;DHT22;3852;52.284;8.032;2022-12-18T13:14:49;-0.80;99.90
7622;DHT22;3852;52.284;8.032;2022-12-18T13:20:10;-1.00;99.90
7622;DHT22;3852;52.284;8.032;2022-12-18T13:22:45;-0.80;99.90
7622;DHT22;3852;52.284;8.032;2022-12-18T13:28:13;-0.90;99.90
7622;DHT22;3852;52.284;8.032;2022-12-18T13:38:32;-0.70;99.90
7622;DHT22;3852;52.284;8.032;2022-12-18T13:43:39;-0.80;99.90
7622;DHT22;3852;52.284;8.032;2022-12-18T13:51:41;-0.70;99.90
7622;DHT22;3852;52.284;8.032;2022-12-18T13:56:51;-0.80;99.90
7622;DHT22;3852;52.284;8.032;2022-12-18T13:59:46;-0.90;99.90
7622;DHT22;3852;52.284;8.032;2022-12-18T14:02:20;-0.80;99.90
7622;DHT22;3852;52.284;8.032;2022-12-18T14:04:48;-0.90;99.90
7622;DHT22;3852;52.284;8.032;2022-12-18T14:07:24;-1.00;99.90
7622;DHT22;3852;52.284;8.032;2022-12-18T14:10:01;-0.90;99.90
7622;DHT22;3852;52.284;8.032;2022-12-18T14:12:31;-0.90;99.90
7622;DHT22;3852;52.284;8.032;2022-12-18T14:15:47;-0.70;99.90
7622;DHT22;3852;52.284;8.032;2022-12-18T14:20:54;-0.60;99.90
7622;DHT22;3852;52.284;8.032;2022-12-18T14:23:35;-0.70;99.90
7622;DHT22;3852;52.284;8.032;2022-12-18T14:26:03;-0.60;99.90
7622;DHT22;3852;52.284;8.032;2022-12-18T14:28:50;-0.60;99.90
7622;DHT22;3852;52.284;8.032;2022-12-18T14:31:21;-0.50;99.90
7622;DHT22;3852;52.284;8.032;2022-12-18T14:33:52;-0.50;99.90
7622;DHT22;3852;52.284;8.032;2022-12-18T14:36:25;-0.20;99.90
7622;DHT22;3852;52.284;8.032;2022-12-18T14:38:54;-0.30;99.90
7622;DHT22;3852;52.284;8.032;2022-12-18T14:41:22;-0.30;99.90
7622;DHT22;3852;52.284;8.032;2022-12-18T14:43:51;-0.40;99.90
7622;DHT22;3852;52.284;8.032;2022-12-18T14:46:44;-0.40;99.90
7622;DHT22;3852;52.284;8.032;2022-12-18T14:49:30;-0.40;99.90
7622;DHT22;3852;52.284;8.032;2022-12-18T14:52:02;-0.60;99.90
7622;DHT22;3852;52.284;8.032;2022-12-18T14:54:31;-0.60;99.90
7622;DHT22;3852;52.284;8.032;2022-12-18T14:57:22;-0.60;99.90
7622;DHT22;3852;52.284;8.032;2022-12-18T14:59:52;-0.50;99.90
7622;DHT22;3852;52.284;8.032;2022-12-18T15:02:28;-0.40;99.90
7622;DHT22;3852;52.284;8.032;2022-12-18T15:05:14;-0.30;99.90
7622;DHT22;3852;52.284;8.032;2022-12-18T15:07:44;-0.30;99.90
7622;DHT22;3852;52.284;8.032;2022-12-18T15:23:12;-0.20;99.90
7622;DHT22;3852;52.284;8.032;2022-12-18T15:25:40;-0.20;99.90
7622;DHT22;3852;52.284;8.032;2022-12-18T15:28:30;-0.20;99.90
7622;DHT22;3852;52.284;8.032;2022-12-18T15:31:33;-0.30;99.90
7622;DHT22;3852;52.284;8.032;2022-12-18T15:34:02;-0.40;99.90
7622;DHT22;3852;52.284;8.032;2022-12-18T15:36:35;-0.40;99.90
7622;DHT22;3852;52.284;8.032;2022-12-18T15:39:02;-0.40;99.90
7622;DHT22;3852;52.284;8.032;2022-12-18T15:41:31;-0.20;99.90
7622;DHT22;3852;52.284;8.032;2022-12-18T15:43:59;-0.30;99.90
7622;DHT22;3852;52.284;8.032;2022-12-18T15:46:25;-0.10;99.90
7622;DHT22;3852;52.284;8.032;2022-12-18T15:48:54;-0.10;99.90
7622;DHT22;3852;52.284;8.032;2022-12-18T15:51:29;-0.10;99.90
7622;DHT22;3852;52.284;8.032;2022-12-18T15:54:00;0.00;99.90
7622;DHT22;3852;52.284;8.032;2022-12-18T15:56:29;0.10;99.90
7622;DHT22;3852;52.284;8.032;2022-12-18T15:59:20;0.10;99.90
7622;DHT22;3852;52.284;8.032;2022-12-18T16:01:48;0.10;99.90
7622;DHT22;3852;52.284;8.032;2022-12-18T16:04:17;0.00;99.90
7622;DHT22;3852;52.284;8.032;2022-12-18T16:06:46;-0.10;99.90
7622;DHT22;3852;52.284;8.032;2022-12-18T16:09:12;-0.10;99.90
7622;DHT22;3852;52.284;8.032;2022-12-18T16:11:39;0.00;99.90
7622;DHT22;3852;52.284;8.032;2022-12-18T16:14:20;0.00;99.90
7622;DHT22;3852;52.284;8.032;2022-12-18T16:16:54;-0.10;99.90
7622;DHT22;3852;52.284;8.032;2022-12-18T16:19:21;0.00;99.90
7622;DHT22;3852;52.284;8.032;2022-12-18T16:21:48;0.10;99.90
7622;DHT22;3852;52.284;8.032;2022-12-18T16:24:20;0.20;99.90
7622;DHT22;3852;52.284;8.032;2022-12-18T16:26:47;0.10;99.90
7622;DHT22;3852;52.284;8.032;2022-12-18T16:29:14;0.00;99.90
7622;DHT22;3852;52.284;8.032;2022-12-18T16:31:40;0.10;99.90
7622;DHT22;3852;52.284;8.032;2022-12-18T16:34:27;0.20;99.90
7622;DHT22;3852;52.284;8.032;2022-12-18T16:37:02;0.10;99.90
7622;DHT22;3852;52.284;8.032;2022-12-18T16:39:29;0.20;99.90
7622;DHT22;3852;52.284;8.032;2022-12-18T16:41:56;0.20;99.90
7622;DHT22;3852;52.284;8.032;2022-12-18T16:44:22;0.40;99.90
7622;DHT22;3852;52.284;8.032;2022-12-18T16:46:48;0.50;99.90
7622;DHT22;3852;52.284;8.032;2022-12-18T16:49:16;0.50;99.90
7622;DHT22;3852;52.284;8.032;2022-12-18T16:51:42;0.40;99.90
7622;DHT22;3852;52.284;8.032;2022-12-18T16:54:09;0.40;99.90
7622;DHT22;3852;52.284;8.032;2022-12-18T16:56:35;0.30;99.90
7622;DHT22;3852;52.284;8.032;2022-12-18T16:59:02;0.30;99.90
7622;DHT22;3852;52.284;8.032;2022-12-18T17:01:29;0.40;99.90
7622;DHT22;3852;52.284;8.032;2022-12-18T17:04:07;0.40;99.90
7622;DHT22;3852;52.284;8.032;2022-12-18T17:06:39;0.40;99.90
7622;DHT22;3852;52.284;8.032;2022-12-18T17:09:11;0.50;99.90
7622;DHT22;3852;52.284;8.032;2022-12-18T17:11:39;0.70;99.90
7622;DHT22;3852;52.284;8.032;2022-12-18T17:14:16;0.60;99.90
7622;DHT22;3852;52.284;8.032;2022-12-18T17:16:43;0.80;99.90
7622;DHT22;3852;52.284;8.032;2022-12-18T17:19:10;0.60;99.90
7622;DHT22;3852;52.284;8.032;2022-12-18T17:21:36;0.70;99.90
7622;DHT22;3852;52.284;8.032;2022-12-18T17:24:02;0.80;99.90
7622;DHT22;3852;52.284;8.032;2022-12-18T17:26:28;0.90;99.90
7622;DHT22;3852;52.284;8.032;2022-12-18T17:28:57;1.00;99.90
7622;DHT22;3852;52.284;8.032;2022-12-18T17:31:25;1.00;99.90
7622;DHT22;3852;52.284;8.032;2022-12-18T17:33:53;0.90;99.90
7622;DHT22;3852;52.284;8.032;2022-12-18T17:36:20;1.00;99.90
7622;DHT22;3852;52.284;8.032;2022-12-18T17:38:54;1.00;99.90
7622;DHT22;3852;52.284;8.032;2022-12-18T17:41:22;1.10;99.90
7622;DHT22;3852;52.284;8.032;2022-12-18T17:44:03;1.20;99.90
7622;DHT22;3852;52.284;8.032;2022-12-18T17:46:31;1.00;99.90
7622;DHT22;3852;52.284;8.032;2022-12-18T17:48:59;1.20;99.90
7622;DHT22;3852;52.284;8.032;2022-12-18T17:51:26;1.10;99.90
7622;DHT22;3852;52.284;8.032;2022-12-18T17:53:52;1.10;99.90
7622;DHT22;3852;52.284;8.032;2022-12-18T17:56:21;1.10;99.90
7622;DHT22;3852;52.284;8.032;2022-12-18T17:58:50;0.90;99.90
7622;DHT22;3852;52.284;8.032;2022-12-18T18:01:18;1.10;99.90
7622;DHT22;3852;52.284;8.032;2022-12-18T18:03:47;0.90;99.90
7622;DHT22;3852;52.284;8.032;2022-12-18T18:06:13;0.90;99.90
7622;DHT22;3852;52.284;8.032;2022-12-18T18:08:39;0.80;99.90
7622;DHT22;3852;52.284;8.032;2022-12-18T18:11:10;0.90;99.90
7622;DHT22;3852;52.284;8.032;2022-12-18T18:13:56;1.00;99.90
7622;DHT22;3852;52.284;8.032;2022-12-18T18:16:25;1.10;99.90
7622;DHT22;3852;52.284;8.032;2022-12-18T18:19:10;0.90;99.90
7622;DHT22;3852;52.284;8.032;2022-12-18T18:21:45;0.90;99.90
7622;DHT22;3852;52.284;8.032;2022-12-18T18:24:14;1.00;99.90
7622;DHT22;3852;52.284;8.032;2022-12-18T18:26:41;0.90;99.90
7622;DHT22;3852;52.284;8.032;2022-12-18T18:29:16;0.90;99.90
7622;DHT22;3852;52.284;8.032;2022-12-18T18:31:44;1.00;99.90
7622;DHT22;3852;52.284;8.032;2022-12-18T18:34:18;0.90;99.90
7622;DHT22;3852;52.284;8.032;2022-12-18T18:36:46;1.10;99.90
7622;DHT22;3852;52.284;8.032;2022-12-18T18:39:12;1.10;99.90